sensor_id;sensor_type;location;lat;lon;timestamp;noise_LAeq;noise_LA_min;noise_LA_max;noise_LA01;noise_LA95
43787;Laerm;29409;49.306;8.500;2023-07-08T00:00:49;39.95;35.36;43.09;;
43787;Laerm;29409;49.306;8.500;2023-07-08T00:01:49;39.49;35.36;41.89;;
43787;Laerm;29409;49.306;8.500;2023-07-08T00:02:50;40.43;35.66;49.78;;
43787;Laerm;29409;49.306;8.500;2023-07-08T00:03:50;42.31;39.21;44.27;;
43787;Laerm;29409;49.306;8.500;2023-07-08T00:04:50;42.38;39.81;43.90;;
43787;Laerm;29409;49.306;8.500;2023-07-08T00:05:53;42.61;40.23;44.58;;
43787;Laerm;29409;49.306;8.500;2023-07-08T00:06:55;42.43;40.33;44.87;;
43787;Laerm;29409;49.306;8.500;2023-07-08T00:07:55;42.54;39.34;44.47;;
43787;Laerm;29409;49.306;8.500;2023-07-08T00:08:56;43.16;40.43;51.12;;
43787;Laerm;29409;49.306;8.500;2023-07-08T00:09:56;45.20;40.53;59.88;;
43787;Laerm;29409;49.306;8.500;2023-07-08T00:10:56;42.72;40.98;46.33;;
43787;Laerm;29409;49.306;8.500;2023-07-08T00:11:56;42.31;40.43;43.90;;
43787;Laerm;29409;49.306;8.500;2023-07-08T00:13:00;42.15;40.03;44.35;;
43787;Laerm;29409;49.306;8.500;2023-07-08T00:14:00;42.35;40.33;44.51;;
43787;Laerm;29409;49.306;8.500;2023-07-08T00:15:00;44.66;40.08;73.40;;
43787;Laerm;29409;49.306;8.500;2023-07-08T00:16:00;42.16;40.33;43.49;;
43787;Laerm;29409;49.306;8.500;2023-07-08T00:17:01;41.96;40.33;47.52;;
43787;Laerm;29409;49.306;8.500;2023-07-08T00:18:01;41.79;39.81;43.14;;
43787;Laerm;29409;49.306;8.500;2023-07-08T00:19:09;41.48;36.91;47.90;;
43787;Laerm;29409;49.306;8.500;2023-07-08T00:21:15;39.66;36.45;42.95;;
43787;Laerm;29409;49.306;8.500;2023-07-08T00:22:15;39.73;36.45;42.59;;
43787;Laerm;29409;49.306;8.500;2023-07-08T00:23:16;40.43;37.12;45.80;;
43787;Laerm;29409;49.306;8.500;2023-07-08T00:24:16;40.45;37.52;43.63;;
43787;Laerm;29409;49.306;8.500;2023-07-08T00:25:16;39.37;36.34;41.75;;
43787;Laerm;29409;49.306;8.500;2023-07-08T00:26:23;39.51;36.45;41.88;;
43787;Laerm;29409;49.306;8.500;2023-07-08T00:27:25;39.48;36.20;41.75;;
43787;Laerm;29409;49.306;8.500;2023-07-08T00:28:25;39.16;34.31;41.82;;
43787;Laerm;29409;49.306;8.500;2023-07-08T00:29:25;39.24;35.66;41.53;;
43787;Laerm;29409;49.306;8.500;2023-07-08T00:31:26;39.71;36.45;42.03;;
43787;Laerm;29409;49.306;8.500;2023-07-08T00:32:26;39.40;35.66;41.53;;
43787;Laerm;29409;49.306;8.500;2023-07-08T00:33:26;40.53;36.45;47.08;;
43787;Laerm;29409;49.306;8.500;2023-07-08T00:34:26;40.09;36.20;48.05;;
43787;Laerm;29409;49.306;8.500;2023-07-08T00:35:29;40.08;37.12;45.27;;
43787;Laerm;29409;49.306;8.500;2023-07-08T00:36:30;39.31;35.36;41.22;;
43787;Laerm;29409;49.306;8.500;2023-07-08T00:37:31;39.12;35.94;41.46;;
43787;Laerm;29409;49.306;8.500;2023-07-08T00:38:31;39.57;36.20;42.09;;
43787;Laerm;29409;49.306;8.500;2023-07-08T00:39:34;39.40;35.94;41.68;;
43787;Laerm;29409;49.306;8.500;2023-07-08T00:40:34;39.78;36.69;42.29;;
43787;Laerm;29409;49.306;8.500;2023-07-08T00:41:35;43.39;36.69;58.26;;
43787;Laerm;29409;49.306;8.500;2023-07-08T00:42:38;40.72;36.69;45.11;;
43787;Laerm;29409;49.306;8.500;2023-07-08T00:44:39;40.49;37.12;48.26;;
43787;Laerm;29409;49.306;8.500;2023-07-08T00:45:44;39.50;35.94;41.53;;
43787;Laerm;29409;49.306;8.500;2023-07-08T00:47:53;39.55;36.69;41.96;;
43787;Laerm;29409;49.306;8.500;2023-07-08T00:50:00;39.65;36.69;41.68;;
43787;Laerm;29409;49.306;8.500;2023-07-08T00:51:03;40.29;35.66;42.65;;
43787;Laerm;29409;49.306;8.500;2023-07-08T00:54:24;39.60;35.04;41.82;;
43787;Laerm;29409;49.306;8.500;2023-07-08T00:55:24;39.97;36.91;42.47;;
43787;Laerm;29409;49.306;8.500;2023-07-08T00:56:25;40.18;36.91;43.58;;
43787;Laerm;29409;49.306;8.500;2023-07-08T00:57:28;39.77;36.45;42.03;;
43787;Laerm;29409;49.306;8.500;2023-07-08T00:58:32;40.16;36.91;44.73;;
43787;Laerm;29409;49.306;8.500;2023-07-08T00:59:35;41.55;37.88;44.03;;
43787;Laerm;29409;49.306;8.500;2023-07-08T01:00:38;41.94;39.81;48.45;;
43787;Laerm;29409;49.306;8.500;2023-07-08T01:01:41;41.75;38.52;44.76;;
43787;Laerm;29409;49.306;8.500;2023-07-08T01:02:42;41.48;39.34;43.63;;
43787;Laerm;29409;49.306;8.500;2023-07-08T01:03:48;41.54;39.34;43.14;;
43787;Laerm;29409;49.306;8.500;2023-07-08T01:04:50;41.49;39.46;43.44;;
43787;Laerm;29409;49.306;8.500;2023-07-08T01:05:52;41.56;39.46;44.03;;
43787;Laerm;29409;49.306;8.500;2023-07-08T01:06:53;41.69;39.92;44.76;;
43787;Laerm;29409;49.306;8.500;2023-07-08T01:07:58;41.86;40.03;43.77;;
43787;Laerm;29409;49.306;8.500;2023-07-08T01:09:02;42.57;40.71;51.86;;
43787;Laerm;29409;49.306;8.500;2023-07-08T01:10:06;42.50;39.70;47.02;;
43787;Laerm;29409;49.306;8.500;2023-07-08T01:11:08;42.05;39.34;45.83;;
43787;Laerm;29409;49.306;8.500;2023-07-08T01:12:09;41.73;38.67;47.84;;
43787;Laerm;29409;49.306;8.500;2023-07-08T01:13:11;39.97;37.12;42.76;;
43787;Laerm;29409;49.306;8.500;2023-07-08T01:14:14;39.45;36.45;42.76;;
43787;Laerm;29409;49.306;8.500;2023-07-08T01:15:17;41.01;37.12;59.46;;
43787;Laerm;29409;49.306;8.500;2023-07-08T01:16:18;40.55;37.52;51.88;;
43787;Laerm;29409;49.306;8.500;2023-07-08T01:17:19;40.69;37.12;50.29;;
43787;Laerm;29409;49.306;8.500;2023-07-08T01:18:20;39.67;36.45;42.03;;
43787;Laerm;29409;49.306;8.500;2023-07-08T01:19:24;39.43;35.59;41.46;;
43787;Laerm;29409;49.306;8.500;2023-07-08T01:20:32;39.62;35.94;42.65;;
43787;Laerm;29409;49.306;8.500;2023-07-08T01:21:46;39.16;36.20;42.09;;
43787;Laerm;29409;49.306;8.500;2023-07-08T01:22:51;39.67;36.91;43.58;;
43787;Laerm;29409;49.306;8.500;2023-07-08T01:23:51;39.24;36.20;42.03;;
43787;Laerm;29409;49.306;8.500;2023-07-08T01:24:52;38.92;35.94;41.30;;
43787;Laerm;29409;49.306;8.500;2023-07-08T01:25:52;39.22;35.36;44.73;;
43787;Laerm;29409;49.306;8.500;2023-07-08T01:26:52;39.10;35.94;43.63;;
43787;Laerm;29409;49.306;8.500;2023-07-08T01:27:54;39.06;35.94;41.38;;
43787;Laerm;29409;49.306;8.500;2023-07-08T01:28:55;39.46;36.20;41.96;;
43787;Laerm;29409;49.306;8.500;2023-07-08T01:29:57;39.45;36.20;43.09;;
43787;Laerm;29409;49.306;8.500;2023-07-08T01:30:58;39.49;36.45;41.82;;
43787;Laerm;29409;49.306;8.500;2023-07-08T01:32:00;40.13;36.91;42.71;;
43787;Laerm;29409;49.306;8.500;2023-07-08T01:33:06;40.08;36.69;43.24;;
43787;Laerm;29409;49.306;8.500;2023-07-08T01:34:08;40.27;37.52;42.93;;
43787;Laerm;29409;49.306;8.500;2023-07-08T01:35:09;43.19;37.88;50.69;;
43787;Laerm;29409;49.306;8.500;2023-07-08T01:36:11;41.32;37.32;47.32;;
43787;Laerm;29409;49.306;8.500;2023-07-08T01:37:11;40.59;35.94;48.76;;
43787;Laerm;29409;49.306;8.500;2023-07-08T01:38:12;39.21;35.94;42.09;;
43787;Laerm;29409;49.306;8.500;2023-07-08T01:39:15;40.08;37.12;53.31;;
43787;Laerm;29409;49.306;8.500;2023-07-08T01:41:31;39.45;36.56;41.61;;
43787;Laerm;29409;49.306;8.500;2023-07-08T01:42:31;39.81;36.91;41.89;;
43787;Laerm;29409;49.306;8.500;2023-07-08T01:43:31;40.14;37.32;42.59;;
43787;Laerm;29409;49.306;8.500;2023-07-08T01:44:35;41.57;38.21;52.45;;
43787;Laerm;29409;49.306;8.500;2023-07-08T01:45:36;40.23;36.69;45.36;;
43787;Laerm;29409;49.306;8.500;2023-07-08T01:46:38;39.63;35.04;42.53;;
43787;Laerm;29409;49.306;8.500;2023-07-08T01:47:39;39.59;35.66;42.35;;
43787;Laerm;29409;49.306;8.500;2023-07-08T01:48:40;40.34;37.32;43.19;;
43787;Laerm;29409;49.306;8.500;2023-07-08T01:49:42;40.61;38.05;42.88;;
43787;Laerm;29409;49.306;8.500;2023-07-08T01:50:47;40.53;37.88;42.93;;
43787;Laerm;29409;49.306;8.500;2023-07-08T01:51:50;40.44;37.12;49.80;;
43787;Laerm;29409;49.306;8.500;2023-07-08T01:52:50;44.55;36.45;73.41;;
43787;Laerm;29409;49.306;8.500;2023-07-08T01:53:52;39.45;35.94;41.75;;
43787;Laerm;29409;49.306;8.500;2023-07-08T01:54:55;39.31;35.66;41.46;;
43787;Laerm;29409;49.306;8.500;2023-07-08T01:55:55;38.93;35.36;43.77;;
43787;Laerm;29409;49.306;8.500;2023-07-08T01:56:57;41.42;38.05;45.94;;
43787;Laerm;29409;49.306;8.500;2023-07-08T01:57:58;42.80;39.92;44.47;;
43787;Laerm;29409;49.306;8.500;2023-07-08T01:58:58;43.26;41.38;44.58;;
43787;Laerm;29409;49.306;8.500;2023-07-08T01:59:59;42.61;39.70;49.82;;
43787;Laerm;29409;49.306;8.500;2023-07-08T02:00:59;42.13;40.13;43.81;;
43787;Laerm;29409;49.306;8.500;2023-07-08T02:02:00;42.12;39.81;44.07;;
43787;Laerm;29409;49.306;8.500;2023-07-08T02:03:01;42.23;39.92;43.54;;
43787;Laerm;29409;49.306;8.500;2023-07-08T02:04:01;42.35;40.43;43.54;;
43787;Laerm;29409;49.306;8.500;2023-07-08T02:05:03;42.80;40.80;47.22;;
43787;Laerm;29409;49.306;8.500;2023-07-08T02:06:05;42.73;40.80;46.25;;
43787;Laerm;29409;49.306;8.500;2023-07-08T02:07:06;42.34;40.33;51.82;;
43787;Laerm;29409;49.306;8.500;2023-07-08T02:08:06;42.06;39.81;43.68;;
43787;Laerm;29409;49.306;8.500;2023-07-08T02:09:06;42.14;39.81;44.43;;
43787;Laerm;29409;49.306;8.500;2023-07-08T02:10:07;41.88;39.46;48.03;;
43787;Laerm;29409;49.306;8.500;2023-07-08T02:11:07;40.28;35.66;43.09;;
43787;Laerm;29409;49.306;8.500;2023-07-08T02:12:08;39.56;35.66;44.31;;
43787;Laerm;29409;49.306;8.500;2023-07-08T02:13:08;39.81;36.45;41.61;;
43787;Laerm;29409;49.306;8.500;2023-07-08T02:14:08;39.46;36.69;41.68;;
43787;Laerm;29409;49.306;8.500;2023-07-08T02:15:09;39.22;36.45;41.14;;
43787;Laerm;29409;49.306;8.500;2023-07-08T02:16:09;40.14;36.45;45.66;;
43787;Laerm;29409;49.306;8.500;2023-07-08T02:17:10;39.86;35.94;45.33;;
43787;Laerm;29409;49.306;8.500;2023-07-08T02:18:10;39.17;36.45;41.61;;
43787;Laerm;29409;49.306;8.500;2023-07-08T02:19:10;39.36;36.20;42.76;;
43787;Laerm;29409;49.306;8.500;2023-07-08T02:20:11;39.05;35.04;41.68;;
43787;Laerm;29409;49.306;8.500;2023-07-08T02:21:11;40.40;36.91;62.78;;
43787;Laerm;29409;49.306;8.500;2023-07-08T02:22:14;39.37;36.45;41.82;;
43787;Laerm;29409;49.306;8.500;2023-07-08T02:23:14;39.46;35.94;42.65;;
43787;Laerm;29409;49.306;8.500;2023-07-08T02:24:15;39.72;36.45;45.23;;
43787;Laerm;29409;49.306;8.500;2023-07-08T02:25:16;40.77;35.66;49.15;;
43787;Laerm;29409;49.306;8.500;2023-07-08T02:26:17;39.54;35.94;45.45;;
43787;Laerm;29409;49.306;8.500;2023-07-08T02:27:17;39.29;36.20;43.99;;
43787;Laerm;29409;49.306;8.500;2023-07-08T02:28:18;39.13;35.66;41.46;;
43787;Laerm;29409;49.306;8.500;2023-07-08T02:29:18;39.34;35.66;42.09;;
43787;Laerm;29409;49.306;8.500;2023-07-08T02:30:18;40.50;36.77;46.05;;
43787;Laerm;29409;49.306;8.500;2023-07-08T02:31:18;39.17;35.36;41.61;;
43787;Laerm;29409;49.306;8.500;2023-07-08T02:32:19;39.86;35.36;45.11;;
43787;Laerm;29409;49.306;8.500;2023-07-08T02:33:19;43.17;38.05;55.21;;
43787;Laerm;29409;49.306;8.500;2023-07-08T02:34:19;40.75;35.04;49.70;;
43787;Laerm;29409;49.306;8.500;2023-07-08T02:35:20;39.11;35.04;42.16;;
43787;Laerm;29409;49.306;8.500;2023-07-08T02:36:20;39.97;36.20;43.14;;
43787;Laerm;29409;49.306;8.500;2023-07-08T02:37:21;39.88;35.94;43.68;;
43787;Laerm;29409;49.306;8.500;2023-07-08T02:38:21;40.06;36.69;46.52;;
43787;Laerm;29409;49.306;8.500;2023-07-08T02:39:22;41.82;37.70;50.82;;
43787;Laerm;29409;49.306;8.500;2023-07-08T02:40:22;40.21;37.12;43.04;;
43787;Laerm;29409;49.306;8.500;2023-07-08T02:41:23;39.70;35.31;43.81;;
43787;Laerm;29409;49.306;8.500;2023-07-08T02:42:23;40.15;35.94;50.22;;
43787;Laerm;29409;49.306;8.500;2023-07-08T02:43:24;42.07;36.91;50.34;;
43787;Laerm;29409;49.306;8.500;2023-07-08T02:44:24;44.30;37.52;60.10;;
43787;Laerm;29409;49.306;8.500;2023-07-08T02:45:26;40.91;37.88;44.39;;
43787;Laerm;29409;49.306;8.500;2023-07-08T02:46:26;41.08;37.35;51.13;;
43787;Laerm;29409;49.306;8.500;2023-07-08T02:47:27;41.61;38.05;50.66;;
43787;Laerm;29409;49.306;8.500;2023-07-08T02:48:27;42.22;37.88;53.36;;
43787;Laerm;29409;49.306;8.500;2023-07-08T02:49:27;41.09;37.70;52.89;;
43787;Laerm;29409;49.306;8.500;2023-07-08T02:50:28;41.65;38.05;53.10;;
43787;Laerm;29409;49.306;8.500;2023-07-08T02:51:29;41.22;37.52;52.95;;
43787;Laerm;29409;49.306;8.500;2023-07-08T02:52:29;40.73;38.05;43.09;;
43787;Laerm;29409;49.306;8.500;2023-07-08T02:53:29;40.65;37.88;43.68;;
43787;Laerm;29409;49.306;8.500;2023-07-08T02:54:30;40.43;37.88;45.80;;
43787;Laerm;29409;49.306;8.500;2023-07-08T02:55:30;40.29;37.52;42.98;;
43787;Laerm;29409;49.306;8.500;2023-07-08T02:56:30;40.49;37.70;44.07;;
43787;Laerm;29409;49.306;8.500;2023-07-08T02:57:31;40.41;37.52;44.51;;
43787;Laerm;29409;49.306;8.500;2023-07-08T02:58:31;40.48;37.52;46.02;;
43787;Laerm;29409;49.306;8.500;2023-07-08T02:59:32;40.45;37.88;45.86;;
43787;Laerm;29409;49.306;8.500;2023-07-08T03:00:32;41.67;38.21;46.15;;
43787;Laerm;29409;49.306;8.500;2023-07-08T03:01:32;41.09;37.32;44.47;;
43787;Laerm;29409;49.306;8.500;2023-07-08T03:02:34;40.03;37.52;44.97;;
43787;Laerm;29409;49.306;8.500;2023-07-08T03:03:34;40.27;37.52;42.41;;
43787;Laerm;29409;49.306;8.500;2023-07-08T03:04:35;40.69;37.52;45.99;;
43787;Laerm;29409;49.306;8.500;2023-07-08T03:05:39;41.47;38.37;45.07;;
43787;Laerm;29409;49.306;8.500;2023-07-08T03:06:42;42.31;38.95;44.11;;
43787;Laerm;29409;49.306;8.500;2023-07-08T03:07:43;42.77;40.33;45.39;;
43787;Laerm;29409;49.306;8.500;2023-07-08T03:08:43;43.33;40.53;47.54;;
43787;Laerm;29409;49.306;8.500;2023-07-08T03:09:43;43.42;41.22;48.92;;
43787;Laerm;29409;49.306;8.500;2023-07-08T03:10:47;43.30;40.36;49.91;;
43787;Laerm;29409;49.306;8.500;2023-07-08T03:11:47;43.90;40.53;50.85;;
43787;Laerm;29409;49.306;8.500;2023-07-08T03:12:48;44.18;41.82;51.79;;
43787;Laerm;29409;49.306;8.500;2023-07-08T03:13:48;45.28;40.53;53.83;;
43787;Laerm;29409;49.306;8.500;2023-07-08T03:14:48;42.91;40.71;50.52;;
43787;Laerm;29409;49.306;8.500;2023-07-08T03:15:49;44.83;41.75;52.12;;
43787;Laerm;29409;49.306;8.500;2023-07-08T03:16:49;45.00;42.09;52.21;;
43787;Laerm;29409;49.306;8.500;2023-07-08T03:17:50;45.67;42.41;54.53;;
43787;Laerm;29409;49.306;8.500;2023-07-08T03:18:51;48.39;42.16;56.96;;
43787;Laerm;29409;49.306;8.500;2023-07-08T03:19:52;45.77;41.14;57.18;;
43787;Laerm;29409;49.306;8.500;2023-07-08T03:20:52;43.79;40.43;53.53;;
43787;Laerm;29409;49.306;8.500;2023-07-08T03:21:53;43.66;40.88;54.33;;
43787;Laerm;29409;49.306;8.500;2023-07-08T03:22:53;43.75;40.53;54.23;;
43787;Laerm;29409;49.306;8.500;2023-07-08T03:23:54;44.35;40.98;53.57;;
43787;Laerm;29409;49.306;8.500;2023-07-08T03:24:54;45.86;40.98;55.99;;
43787;Laerm;29409;49.306;8.500;2023-07-08T03:25:55;45.55;40.53;57.94;;
43787;Laerm;29409;49.306;8.500;2023-07-08T03:26:56;45.99;41.06;55.26;;
43787;Laerm;29409;49.306;8.500;2023-07-08T03:27:59;46.92;40.98;60.66;;
43787;Laerm;29409;49.306;8.500;2023-07-08T03:28:59;48.02;41.22;59.87;;
43787;Laerm;29409;49.306;8.500;2023-07-08T03:30:01;43.55;40.98;54.12;;
43787;Laerm;29409;49.306;8.500;2023-07-08T03:31:01;45.97;40.71;57.51;;
43787;Laerm;29409;49.306;8.500;2023-07-08T03:32:01;47.33;40.53;58.75;;
43787;Laerm;29409;49.306;8.500;2023-07-08T03:33:01;47.17;40.23;58.46;;
43787;Laerm;29409;49.306;8.500;2023-07-08T03:34:02;46.18;40.43;55.74;;
43787;Laerm;29409;49.306;8.500;2023-07-08T03:35:02;47.88;40.89;74.81;;
43787;Laerm;29409;49.306;8.500;2023-07-08T03:36:03;46.85;40.71;58.66;;
43787;Laerm;29409;49.306;8.500;2023-07-08T03:37:04;49.13;37.88;63.26;;
43787;Laerm;29409;49.306;8.500;2023-07-08T03:38:04;46.65;38.52;61.80;;
43787;Laerm;29409;49.306;8.500;2023-07-08T03:39:05;44.98;37.88;56.76;;
43787;Laerm;29409;49.306;8.500;2023-07-08T03:40:07;41.92;37.32;53.60;;
43787;Laerm;29409;49.306;8.500;2023-07-08T03:41:09;42.53;38.21;53.12;;
43787;Laerm;29409;49.306;8.500;2023-07-08T03:42:09;43.32;37.70;53.00;;
43787;Laerm;29409;49.306;8.500;2023-07-08T03:43:10;44.90;37.52;56.65;;
43787;Laerm;29409;49.306;8.500;2023-07-08T03:44:10;48.46;38.81;64.83;;
43787;Laerm;29409;49.306;8.500;2023-07-08T03:45:11;48.87;38.21;61.78;;
43787;Laerm;29409;49.306;8.500;2023-07-08T03:46:12;48.20;37.70;60.16;;
43787;Laerm;29409;49.306;8.500;2023-07-08T03:47:12;47.31;37.12;59.21;;
43787;Laerm;29409;49.306;8.500;2023-07-08T03:48:12;44.24;37.52;59.46;;
43787;Laerm;29409;49.306;8.500;2023-07-08T03:49:13;44.82;38.05;64.11;;
43787;Laerm;29409;49.306;8.500;2023-07-08T03:50:17;42.43;37.70;54.17;;
43787;Laerm;29409;49.306;8.500;2023-07-08T03:51:23;43.09;37.88;57.33;;
43787;Laerm;29409;49.306;8.500;2023-07-08T03:52:24;44.46;37.32;59.44;;
43787;Laerm;29409;49.306;8.500;2023-07-08T03:53:24;42.90;38.67;54.43;;
43787;Laerm;29409;49.306;8.500;2023-07-08T03:54:24;44.11;37.70;55.99;;
43787;Laerm;29409;49.306;8.500;2023-07-08T03:55:25;44.91;36.91;59.45;;
43787;Laerm;29409;49.306;8.500;2023-07-08T03:56:25;43.97;37.88;57.74;;
43787;Laerm;29409;49.306;8.500;2023-07-08T03:57:25;43.77;37.32;56.24;;
43787;Laerm;29409;49.306;8.500;2023-07-08T03:58:25;43.15;37.12;55.70;;
43787;Laerm;29409;49.306;8.500;2023-07-08T03:59:26;41.75;37.88;52.45;;
43787;Laerm;29409;49.306;8.500;2023-07-08T04:00:26;42.98;38.05;55.99;;
43787;Laerm;29409;49.306;8.500;2023-07-08T04:01:26;45.93;36.91;59.29;;
43787;Laerm;29409;49.306;8.500;2023-07-08T04:02:26;43.16;38.37;55.37;;
43787;Laerm;29409;49.306;8.500;2023-07-08T04:03:27;43.07;38.05;55.84;;
43787;Laerm;29409;49.306;8.500;2023-07-08T04:04:27;45.87;38.21;57.21;;
43787;Laerm;29409;49.306;8.500;2023-07-08T04:05:27;43.87;37.70;55.50;;
43787;Laerm;29409;49.306;8.500;2023-07-08T04:06:27;43.06;38.95;56.22;;
43787;Laerm;29409;49.306;8.500;2023-07-08T04:07:29;43.23;38.95;56.10;;
43787;Laerm;29409;49.306;8.500;2023-07-08T04:08:29;41.92;37.88;52.61;;
43787;Laerm;29409;49.306;8.500;2023-07-08T04:09:30;43.81;36.91;57.93;;
43787;Laerm;29409;49.306;8.500;2023-07-08T04:10:30;41.77;38.37;56.58;;
43787;Laerm;29409;49.306;8.500;2023-07-08T04:11:30;41.95;37.70;53.77;;
43787;Laerm;29409;49.306;8.500;2023-07-08T04:12:31;45.89;37.12;56.48;;
43787;Laerm;29409;49.306;8.500;2023-07-08T04:13:31;45.36;40.03;55.77;;
43787;Laerm;29409;49.306;8.500;2023-07-08T04:14:31;42.97;38.95;52.09;;
43787;Laerm;29409;49.306;8.500;2023-07-08T04:15:32;42.42;38.21;55.07;;
43787;Laerm;29409;49.306;8.500;2023-07-08T04:16:39;45.54;38.67;60.37;;
43787;Laerm;29409;49.306;8.500;2023-07-08T04:17:46;44.48;39.08;56.77;;
43787;Laerm;29409;49.306;8.500;2023-07-08T04:18:48;45.63;40.13;53.92;;
43787;Laerm;29409;49.306;8.500;2023-07-08T04:19:50;47.28;39.92;60.49;;
43787;Laerm;29409;49.306;8.500;2023-07-08T04:20:51;46.88;38.95;60.15;;
43787;Laerm;29409;49.306;8.500;2023-07-08T04:21:52;45.24;38.52;58.13;;
43787;Laerm;29409;49.306;8.500;2023-07-08T04:22:53;44.01;38.52;57.85;;
43787;Laerm;29409;49.306;8.500;2023-07-08T04:23:53;46.73;38.81;62.77;;
43787;Laerm;29409;49.306;8.500;2023-07-08T04:24:53;46.81;38.18;60.20;;
43787;Laerm;29409;49.306;8.500;2023-07-08T04:25:54;46.12;37.87;58.62;;
43787;Laerm;29409;49.306;8.500;2023-07-08T04:26:55;46.38;38.37;62.07;;
43787;Laerm;29409;49.306;8.500;2023-07-08T04:27:55;48.05;39.23;60.32;;
43787;Laerm;29409;49.306;8.500;2023-07-08T04:28:55;46.96;37.88;60.40;;
43787;Laerm;29409;49.306;8.500;2023-07-08T04:29:56;43.17;38.95;53.97;;
43787;Laerm;29409;49.306;8.500;2023-07-08T04:30:56;46.41;38.52;60.80;;
43787;Laerm;29409;49.306;8.500;2023-07-08T04:31:56;46.38;38.81;60.39;;
43787;Laerm;29409;49.306;8.500;2023-07-08T04:32:56;46.78;37.70;60.36;;
43787;Laerm;29409;49.306;8.500;2023-07-08T04:33:57;46.62;38.67;59.48;;
43787;Laerm;29409;49.306;8.500;2023-07-08T04:34:57;41.65;37.32;50.77;;
43787;Laerm;29409;49.306;8.500;2023-07-08T04:35:57;40.72;36.91;52.02;;
43787;Laerm;29409;49.306;8.500;2023-07-08T04:36:57;42.42;37.52;62.32;;
43787;Laerm;29409;49.306;8.500;2023-07-08T04:37:59;44.14;37.87;58.72;;
43787;Laerm;29409;49.306;8.500;2023-07-08T04:39:00;42.53;37.88;52.96;;
43787;Laerm;29409;49.306;8.500;2023-07-08T04:40:01;42.68;37.87;54.34;;
43787;Laerm;29409;49.306;8.500;2023-07-08T04:41:01;43.41;39.21;51.13;;
43787;Laerm;29409;49.306;8.500;2023-07-08T04:42:01;44.20;39.46;52.22;;
43787;Laerm;29409;49.306;8.500;2023-07-08T04:43:02;41.37;38.05;52.14;;
43787;Laerm;29409;49.306;8.500;2023-07-08T04:44:03;43.65;37.70;53.61;;
43787;Laerm;29409;49.306;8.500;2023-07-08T04:45:03;43.33;36.69;53.16;;
43787;Laerm;29409;49.306;8.500;2023-07-08T04:46:08;42.06;38.21;53.04;;
43787;Laerm;29409;49.306;8.500;2023-07-08T04:47:15;42.11;37.70;54.89;;
43787;Laerm;29409;49.306;8.500;2023-07-08T04:48:15;43.59;38.37;55.24;;
43787;Laerm;29409;49.306;8.500;2023-07-08T04:49:16;43.04;38.02;52.94;;
43787;Laerm;29409;49.306;8.500;2023-07-08T04:50:16;42.97;38.21;55.25;;
43787;Laerm;29409;49.306;8.500;2023-07-08T04:51:17;41.82;37.70;54.35;;
43787;Laerm;29409;49.306;8.500;2023-07-08T04:52:19;45.69;35.66;64.83;;
43787;Laerm;29409;49.306;8.500;2023-07-08T04:53:19;42.86;37.52;56.27;;
43787;Laerm;29409;49.306;8.500;2023-07-08T04:54:19;45.27;38.52;58.52;;
43787;Laerm;29409;49.306;8.500;2023-07-08T04:55:20;45.99;36.91;58.67;;
43787;Laerm;29409;49.306;8.500;2023-07-08T04:56:20;46.10;38.21;60.97;;
43787;Laerm;29409;49.306;8.500;2023-07-08T04:57:21;46.53;37.52;63.22;;
43787;Laerm;29409;49.306;8.500;2023-07-08T04:58:22;45.03;38.21;61.52;;
43787;Laerm;29409;49.306;8.500;2023-07-08T04:59:23;42.81;38.81;54.44;;
43787;Laerm;29409;49.306;8.500;2023-07-08T05:00:23;42.46;37.52;53.64;;
43787;Laerm;29409;49.306;8.500;2023-07-08T05:01:23;43.12;38.21;53.43;;
43787;Laerm;29409;49.306;8.500;2023-07-08T05:02:24;44.93;38.95;64.81;;
43787;Laerm;29409;49.306;8.500;2023-07-08T05:03:24;41.52;37.88;49.18;;
43787;Laerm;29409;49.306;8.500;2023-07-08T05:04:24;42.20;37.32;56.18;;
43787;Laerm;29409;49.306;8.500;2023-07-08T05:05:24;42.62;38.05;51.39;;
43787;Laerm;29409;49.306;8.500;2023-07-08T05:06:25;43.56;37.88;54.61;;
43787;Laerm;29409;49.306;8.500;2023-07-08T05:07:25;46.67;37.32;62.31;;
43787;Laerm;29409;49.306;8.500;2023-07-08T05:08:26;47.38;39.34;60.56;;
43787;Laerm;29409;49.306;8.500;2023-07-08T05:09:26;44.83;39.21;59.83;;
43787;Laerm;29409;49.306;8.500;2023-07-08T05:10:27;46.14;37.88;59.80;;
43787;Laerm;29409;49.306;8.500;2023-07-08T05:11:27;46.61;38.05;60.44;;
43787;Laerm;29409;49.306;8.500;2023-07-08T05:12:27;42.69;38.52;50.07;;
43787;Laerm;29409;49.306;8.500;2023-07-08T05:13:28;44.26;39.70;59.48;;
43787;Laerm;29409;49.306;8.500;2023-07-08T05:14:28;46.99;39.21;59.93;;
43787;Laerm;29409;49.306;8.500;2023-07-08T05:15:28;47.28;39.46;61.27;;
43787;Laerm;29409;49.306;8.500;2023-07-08T05:16:29;44.28;37.12;58.91;;
43787;Laerm;29409;49.306;8.500;2023-07-08T05:17:29;43.02;39.46;52.61;;
43787;Laerm;29409;49.306;8.500;2023-07-08T05:18:29;43.05;38.52;54.27;;
43787;Laerm;29409;49.306;8.500;2023-07-08T05:19:30;43.78;37.12;55.40;;
43787;Laerm;29409;49.306;8.500;2023-07-08T05:20:30;48.23;40.03;62.79;;
43787;Laerm;29409;49.306;8.500;2023-07-08T05:21:32;50.17;40.98;72.46;;
43787;Laerm;29409;49.306;8.500;2023-07-08T05:22:34;42.85;39.08;52.41;;
43787;Laerm;29409;49.306;8.500;2023-07-08T05:23:35;42.02;36.20;54.07;;
43787;Laerm;29409;49.306;8.500;2023-07-08T05:24:35;43.14;37.88;54.91;;
43787;Laerm;29409;49.306;8.500;2023-07-08T05:25:37;42.41;38.52;54.53;;
43787;Laerm;29409;49.306;8.500;2023-07-08T05:26:37;43.24;38.95;49.40;;
43787;Laerm;29409;49.306;8.500;2023-07-08T05:27:37;43.71;40.03;51.72;;
43787;Laerm;29409;49.306;8.500;2023-07-08T05:28:37;44.86;38.67;63.44;;
43787;Laerm;29409;49.306;8.500;2023-07-08T05:29:38;45.54;39.34;59.08;;
43787;Laerm;29409;49.306;8.500;2023-07-08T05:30:39;47.65;38.21;60.11;;
43787;Laerm;29409;49.306;8.500;2023-07-08T05:31:40;44.81;37.70;57.60;;
43787;Laerm;29409;49.306;8.500;2023-07-08T05:32:40;42.82;37.88;58.06;;
43787;Laerm;29409;49.306;8.500;2023-07-08T05:33:40;43.08;37.32;55.89;;
43787;Laerm;29409;49.306;8.500;2023-07-08T05:34:41;42.77;37.52;52.03;;
43787;Laerm;29409;49.306;8.500;2023-07-08T05:35:41;42.88;38.21;54.73;;
43787;Laerm;29409;49.306;8.500;2023-07-08T05:36:41;44.08;38.81;54.75;;
43787;Laerm;29409;49.306;8.500;2023-07-08T05:37:41;43.68;40.71;57.81;;
43787;Laerm;29409;49.306;8.500;2023-07-08T05:38:44;43.81;40.71;51.89;;
43787;Laerm;29409;49.306;8.500;2023-07-08T05:39:46;43.88;39.92;66.21;;
43787;Laerm;29409;49.306;8.500;2023-07-08T05:40:50;43.24;39.81;51.34;;
43787;Laerm;29409;49.306;8.500;2023-07-08T05:41:51;43.12;39.70;56.43;;
43787;Laerm;29409;49.306;8.500;2023-07-08T05:42:52;42.62;39.92;52.65;;
43787;Laerm;29409;49.306;8.500;2023-07-08T05:43:52;42.98;39.70;51.08;;
43787;Laerm;29409;49.306;8.500;2023-07-08T05:44:54;43.56;39.92;50.60;;
43787;Laerm;29409;49.306;8.500;2023-07-08T05:46:01;49.20;40.80;68.06;;
43787;Laerm;29409;49.306;8.500;2023-07-08T05:47:02;46.67;40.62;58.96;;
43787;Laerm;29409;49.306;8.500;2023-07-08T05:48:02;43.13;40.54;53.14;;
43787;Laerm;29409;49.306;8.500;2023-07-08T05:49:02;42.87;39.58;53.61;;
43787;Laerm;29409;49.306;8.500;2023-07-08T05:50:03;45.82;38.21;59.75;;
43787;Laerm;29409;49.306;8.500;2023-07-08T05:51:03;44.64;37.88;58.01;;